Time;durP1;ratioP1;P1;durP2;ratioP2;P2;SDS_P1;SDS_P2;PMS_P1;PMS_P2;Temp;Humidity;BMP_temperature;BMP_pressure;BME280_temperature;BME280_humidity;BME280_pressure;Samples;Min_cycle;Max_cycle;Signal;HPM_P1;HPM_P2
2022/09/17 00:00:38;;;;;;;1.35;1.10;;;;;;;8.22;53.81;100791.97;4989316;28;20097;-51
2022/09/17 00:03:06;;;;;;;3.53;1.55;;;;;;;8.20;55.29;100797.91;4990550;28;20073;-51
2022/09/17 00:05:33;;;;;;;1.90;1.63;;;;;;;8.17;54.57;100793.56;4989153;28;20069;-51
2022/09/17 00:08:00;;;;;;;5.30;2.22;;;;;;;8.16;54.44;100791.81;4989872;28;20423;-50
2022/09/17 00:10:26;;;;;;;5.45;1.95;;;;;;;8.15;55.53;100790.09;4987605;28;20086;-50
2022/09/17 00:12:53;;;;;;;2.40;1.50;;;;;;;8.15;55.50;100786.63;4987504;28;20089;-51
2022/09/17 00:15:19;;;;;;;3.50;2.17;;;;;;;8.13;55.01;100786.59;4987710;28;20081;-52
2022/09/17 00:17:47;;;;;;;5.65;1.52;;;;;;;8.10;55.44;100786.53;4988232;28;20122;-49
2022/09/17 00:20:17;;;;;;;2.25;1.80;;;;;;;8.09;54.71;100793.41;4983708;28;20050;-51
2022/09/17 00:22:44;;;;;;;;;;;;;;;7.96;55.77;100794.88;4989863;28;20128;-52
2022/09/17 00:25:13;;;;;;;3.17;2.88;;;;;;;8.03;54.78;100789.81;4987896;28;20384;-51
2022/09/17 00:27:41;;;;;;;3.33;1.60;;;;;;;8.03;55.60;100790.72;4989622;28;20042;-52
2022/09/17 00:30:10;;;;;;;2.10;1.90;;;;;;;8.02;55.99;100793.25;4988757;28;20046;-49
2022/09/17 00:32:38;;;;;;;3.25;1.95;;;;;;;8.01;56.08;100788.94;4985196;28;20472;-47
2022/09/17 00:35:07;;;;;;;1.27;0.82;;;;;;;7.98;55.03;100788.03;4989257;28;20438;-49
2022/09/17 00:37:36;;;;;;;1.83;1.60;;;;;;;7.95;55.40;100793.16;4988543;28;20038;-52
2022/09/17 00:40:03;;;;;;;3.58;1.60;;;;;;;7.93;55.87;100787.06;4989500;28;20042;-48
2022/09/17 00:42:30;;;;;;;2.88;1.65;;;;;;;7.91;56.40;100796.47;4988478;28;20043;-46
2022/09/17 00:44:56;;;;;;;6.03;1.13;;;;;;;7.90;55.98;100794.75;4988614;28;20125;-51
2022/09/17 00:47:50;;;;;;;3.22;1.88;;;;;;;7.86;56.32;100800.69;4987888;28;20089;-52
2022/09/17 00:50:25;;;;;;;3.83;2.00;;;;;;;7.88;56.74;100796.44;4988058;28;20141;-51
2022/09/17 00:52:58;;;;;;;2.50;1.17;;;;;;;7.87;55.58;100799.84;4986334;28;20137;-51
2022/09/17 00:55:33;;;;;;;2.65;2.25;;;;;;;7.84;55.94;100795.50;4987728;28;20136;-49
2022/09/17 00:58:02;;;;;;;4.30;1.52;;;;;;;7.84;56.65;100792.06;4986188;28;20046;-52
2022/09/17 01:00:30;;;;;;;3.50;1.45;;;;;;;7.80;55.17;100783.38;4989005;28;20133;-52
2022/09/17 01:02:57;;;;;;;2.50;1.65;;;;;;;7.80;56.07;100787.69;4989610;28;20050;-47
2022/09/17 01:05:33;;;;;;;3.15;1.55;;;;;;;7.77;56.12;100785.03;4985300;28;20121;-52
2022/09/17 01:19:08;;;;;;;1.77;1.02;;;;;;;7.66;56.53;100795.09;5091423;27;20412;-52
2022/09/17 01:34:49;;;;;;;2.28;1.80;;;;;;;7.56;57.22;100794.91;5061667;28;20372;-50
2022/09/17 01:37:27;;;;;;;3.50;1.98;;;;;;;7.56;57.81;100788.88;5026027;28;20041;-53
2022/09/17 01:40:07;;;;;;;1.98;0.68;;;;;;;7.53;56.90;100788.84;5025739;28;20056;-47
2022/09/17 01:50:41;;;;;;;2.63;1.10;;;;;;;7.45;56.81;100786.97;5069124;27;20395;-51
2022/09/17 01:53:10;;;;;;;2.25;0.85;;;;;;;7.43;57.78;100788.63;5039707;28;20137;-49
2022/09/17 01:55:39;;;;;;;1.25;0.50;;;;;;;7.42;57.72;100786.88;5043054;28;20103;-52
2022/09/17 02:00:53;;;;;;;1.83;1.00;;;;;;;7.40;57.01;100782.53;5034620;28;20401;-50
2022/09/17 02:03:29;;;;;;;2.22;1.15;;;;;;;7.39;56.94;100791.09;5024709;28;20067;-52
2022/09/17 02:06:03;;;;;;;2.40;0.77;;;;;;;7.36;57.80;100796.19;5020226;28;20053;-53
2022/09/17 02:08:53;;;;;;;4.75;0.85;;;;;;;7.29;57.71;100788.31;5023812;28;20117;-51
2022/09/17 02:11:21;;;;;;;2.50;1.23;;;;;;;7.30;56.96;100794.34;5021741;28;20136;-50
2022/09/17 02:13:59;;;;;;;3.58;0.93;;;;;;;7.27;58.21;100791.69;5024949;28;20446;-52
2022/09/17 02:16:31;;;;;;;1.60;1.27;;;;;;;7.27;57.15;100787.44;5024791;28;20058;-51
2022/09/17 02:19:06;;;;;;;3.15;0.73;;;;;;;7.27;57.50;100789.13;5023852;28;20464;-48
2022/09/17 02:24:18;;;;;;;3.80;0.93;;;;;;;7.22;57.53;100795.88;5038625;27;20913;-49
2022/09/17 02:26:54;;;;;;;2.38;0.68;;;;;;;7.18;56.91;100795.81;5024684;28;20069;-53
2022/09/17 02:29:31;;;;;;;3.55;0.98;;;;;;;7.17;58.49;100796.63;5024043;28;20053;-52
2022/09/17 02:31:57;;;;;;;2.78;1.02;;;;;;;7.12;57.64;100793.06;5025251;28;20490;-52
2022/09/17 02:34:27;;;;;;;3.38;1.20;;;;;;;7.12;57.52;100797.38;5021454;28;20069;-53
2022/09/17 02:36:55;;;;;;;3.35;0.88;;;;;;;7.10;57.69;100794.75;5022964;28;20145;-54
2022/09/17 02:39:22;;;;;;;5.10;1.00;;;;;;;7.08;57.15;100796.41;5021902;28;20133;-51
2022/09/17 02:42:16;;;;;;;1.65;0.90;;;;;;;7.08;57.35;100796.41;5023699;28;20047;-53
2022/09/17 02:50:25;;;;;;;2.45;2.13;;;;;;;6.99;58.17;100791.91;5054957;27;20387;-52
2022/09/17 02:55:42;;;;;;;4.40;1.60;;;;;;;7.46;58.72;100799.00;5027209;28;20417;-49
2022/09/17 03:00:46;;;;;;;1.75;1.00;;;;;;;7.06;58.45;100800.69;5020300;27;20408;-50
2022/09/17 03:03:22;;;;;;;3.53;1.00;;;;;;;6.99;58.02;100802.22;5029414;28;20064;-51
2022/09/17 03:05:50;;;;;;;3.67;1.30;;;;;;;6.97;59.60;100808.16;5000791;28;20101;-51
2022/09/17 03:08:19;;;;;;;2.58;0.80;;;;;;;6.92;58.68;100811.50;4999174;28;20046;-52
2022/09/17 03:10:48;;;;;;;2.20;1.38;;;;;;;6.91;58.24;100808.88;4995602;28;20070;-47
2022/09/17 03:13:15;;;;;;;2.92;1.15;;;;;;;6.89;59.71;100802.84;4999514;28;20088;-48
2022/09/17 03:15:41;;;;;;;2.97;1.38;;;;;;;6.89;59.83;100808.00;4999051;28;20070;-49
2022/09/17 03:18:08;;;;;;;3.58;1.00;;;;;;;6.88;58.79;100798.50;5000755;28;20042;-52
2022/09/17 03:20:35;;;;;;;5.43;1.20;;;;;;;6.85;60.16;100804.44;4992544;28;20054;-49
2022/09/17 03:23:02;;;;;;;3.53;1.27;;;;;;;6.83;59.50;100806.13;5003229;28;20046;-55
2022/09/17 03:25:28;;;;;;;1.85;0.98;;;;;;;6.82;58.87;100804.38;4995718;28;20062;-50
2022/09/17 03:27:55;;;;;;;4.80;1.02;;;;;;;6.79;58.96;100799.16;5000798;28;20042;-52
2022/09/17 03:30:21;;;;;;;3.08;0.98;;;;;;;6.78;59.32;100802.56;4996460;28;20065;-49
2022/09/17 03:32:48;;;;;;;2.88;1.40;;;;;;;6.75;58.47;100803.34;4998973;28;20052;-55
2022/09/17 03:35:15;;;;;;;3.70;1.08;;;;;;;6.73;59.35;100799.00;5000069;28;20066;-51
2022/09/17 03:37:42;;;;;;;3.28;0.88;;;;;;;6.71;59.00;100795.50;4995293;28;20137;-52
2022/09/17 03:40:09;;;;;;;3.88;0.95;;;;;;;6.71;60.33;100795.50;4991466;28;20066;-50
2022/09/17 03:42:35;;;;;;;2.20;0.85;;;;;;;6.67;59.46;100799.72;4995855;28;20116;-54
2022/09/17 03:45:02;;;;;;;4.07;1.45;;;;;;;6.66;59.26;100793.69;4998996;28;20133;-51
2022/09/17 03:47:29;;;;;;;2.70;1.25;;;;;;;6.65;60.13;100801.38;4995556;28;20050;-52
2022/09/17 03:49:56;;;;;;;4.28;1.25;;;;;;;6.63;60.46;100803.94;5001729;28;20077;-52
2022/09/17 03:52:23;;;;;;;3.75;2.33;;;;;;;6.62;60.33;100801.31;4998221;28;20247;-51
2022/09/17 03:54:49;;;;;;;4.05;2.80;;;;;;;6.61;59.67;100800.44;5002338;28;20078;-51
2022/09/17 03:57:16;;;;;;;7.50;1.20;;;;;;;6.61;60.67;100802.13;5000114;28;20612;-55
2022/09/17 03:59:42;;;;;;;3.85;1.42;;;;;;;6.61;59.19;100800.44;4995053;28;20038;-49
2022/09/17 04:02:09;;;;;;;2.25;0.90;;;;;;;6.60;59.96;100808.09;5002366;28;20133;-52
2022/09/17 04:04:36;;;;;;;2.95;2.22;;;;;;;6.59;59.56;100812.41;4995947;28;20049;-55
2022/09/17 04:07:02;;;;;;;2.70;1.05;;;;;;;6.59;59.84;100806.38;5000969;28;20129;-52
2022/09/17 04:09:29;;;;;;;2.15;1.00;;;;;;;6.58;59.55;100815.78;4991423;28;20042;-56
2022/09/17 04:12:00;;;;;;;2.85;1.20;;;;;;;6.56;60.11;100814.91;4987363;28;20093;-51
2022/09/17 04:14:27;;;;;;;4.00;1.40;;;;;;;6.52;60.64;100800.19;4976152;28;20043;-52
2022/09/17 04:16:53;;;;;;;3.80;1.13;;;;;;;6.49;60.25;100802.69;4989603;28;20491;-52
2022/09/17 04:19:20;;;;;;;4.25;2.35;;;;;;;6.45;60.23;100796.56;4982932;28;20060;-53
2022/09/17 04:21:47;;;;;;;2.40;1.15;;;;;;;6.45;59.78;100793.16;4983709;28;20122;-55
2022/09/17 04:24:13;;;;;;;2.08;1.00;;;;;;;6.43;60.12;100791.38;4985196;28;20078;-50
2022/09/17 04:26:40;;;;;;;2.72;1.10;;;;;;;6.46;61.17;100794.88;4985690;28;20125;-51
2022/09/17 04:29:06;;;;;;;3.42;1.05;;;;;;;6.45;60.50;100795.72;4979356;28;20084;-50
2022/09/17 04:31:33;;;;;;;5.28;2.47;;;;;;;6.43;60.31;100804.25;4982012;28;20663;-54
2022/09/17 04:33:59;;;;;;;3.55;1.20;;;;;;;6.41;60.59;100808.50;4982298;28;20046;-51
2022/09/17 04:36:26;;;;;;;3.35;1.38;;;;;;;6.40;61.28;100796.47;4982817;28;20081;-51
2022/09/17 04:38:53;;;;;;;4.55;1.17;;;;;;;6.41;61.23;100803.34;4995145;28;20097;-50
2022/09/17 04:41:20;;;;;;;4.85;1.27;;;;;;;6.40;60.46;100801.63;4988238;28;20046;-51
2022/09/17 04:43:46;;;;;;;3.65;1.08;;;;;;;6.39;62.02;100805.00;4981856;28;20050;-50
2022/09/17 04:46:13;;;;;;;5.25;1.58;;;;;;;6.37;61.20;100801.53;4986432;28;20101;-49
2022/09/17 04:48:40;;;;;;;2.13;0.95;;;;;;;6.36;60.49;100799.81;4986273;28;20137;-53
2022/09/17 04:51:06;;;;;;;4.75;1.48;;;;;;;6.37;61.57;100810.94;4982008;28;20134;-50
2022/09/17 04:53:33;;;;;;;3.70;1.65;;;;;;;6.34;60.73;100806.59;4984684;28;20101;-45
2022/09/17 04:55:59;;;;;;;3.05;1.30;;;;;;;6.31;61.70;100806.50;4982244;28;20104;-52
2022/09/17 04:58:26;;;;;;;2.70;1.13;;;;;;;6.29;61.51;100803.03;4979960;28;20074;-48
2022/09/17 05:00:53;;;;;;;4.03;1.40;;;;;;;6.28;61.85;100808.97;4980860;28;20235;-48
2022/09/17 05:03:19;;;;;;;2.85;1.25;;;;;;;6.26;60.82;100808.09;4975115;28;20058;-53
2022/09/17 05:05:46;;;;;;;3.92;1.40;;;;;;;6.26;62.27;100808.09;4981843;28;20152;-50
2022/09/17 05:08:12;;;;;;;5.72;1.52;;;;;;;6.24;61.44;100809.72;4981586;28;20129;-46
2022/09/17 05:10:39;;;;;;;3.08;1.58;;;;;;;6.22;61.83;100813.97;4983694;28;20054;-54
2022/09/17 05:13:05;;;;;;;3.78;1.63;;;;;;;6.20;62.53;100813.06;4985611;28;20129;-52
2022/09/17 05:15:32;;;;;;;3.20;1.40;;;;;;;6.19;61.53;100816.47;4987171;28;20066;-45
2022/09/17 05:17:59;;;;;;;4.07;2.10;;;;;;;6.17;62.33;100814.72;4984016;28;20440;-54
2022/09/17 05:20:26;;;;;;;3.17;1.38;;;;;;;6.17;62.06;100817.31;4983762;28;20137;-56
2022/09/17 05:22:52;;;;;;;5.57;1.77;;;;;;;6.15;62.12;100811.22;4982708;28;20042;-50
2022/09/17 05:25:23;;;;;;;2.97;1.27;;;;;;;6.15;61.37;100816.38;5004167;28;20074;-52
2022/09/17 05:27:51;;;;;;;5.32;2.83;;;;;;;6.12;62.49;100810.28;5004474;28;20058;-50
2022/09/17 05:30:18;;;;;;;3.78;1.45;;;;;;;6.11;62.86;100817.13;5020602;28;20531;-47
2022/09/17 05:32:45;;;;;;;4.13;1.58;;;;;;;6.11;61.91;100816.25;5006457;28;20046;-51
2022/09/17 05:35:12;;;;;;;3.47;1.30;;;;;;;6.11;62.93;100811.97;4995343;28;20041;-51
2022/09/17 05:37:39;;;;;;;4.20;3.10;;;;;;;6.11;61.69;100814.53;4999934;28;20137;-52
2022/09/17 05:40:08;;;;;;;3.13;1.38;;;;;;;6.11;63.03;100811.97;4999353;28;20077;-46
2022/09/17 05:42:35;;;;;;;3.20;1.40;;;;;;;6.12;62.36;100811.13;5008077;28;20050;-52
2022/09/17 05:45:01;;;;;;;5.45;4.10;;;;;;;6.12;62.86;100806.00;5000160;28;20042;-55
2022/09/17 05:47:28;;;;;;;8.02;4.35;;;;;;;6.12;62.16;100811.13;5004038;28;20775;-52
2022/09/17 05:49:55;;;;;;;9.88;5.10;;;;;;;6.12;62.92;100818.84;5005489;28;20042;-54
2022/09/17 05:52:21;;;;;;;5.88;3.63;;;;;;;6.12;62.58;100816.28;5004018;28;20076;-50
2022/09/17 05:54:48;;;;;;;4.43;2.55;;;;;;;6.13;63.14;100815.47;5003972;28;20057;-51
2022/09/17 05:57:14;;;;;;;6.07;2.97;;;;;;;6.14;61.97;100813.75;5003101;28;20041;-48
2022/09/17 05:59:41;;;;;;;7.53;2.83;;;;;;;6.15;62.54;100812.94;5003571;28;20107;-47
2022/09/17 06:02:12;;;;;;;13.00;3.58;;;;;;;6.18;61.80;100815.56;4997134;28;20050;-55
2022/09/17 06:04:39;;;;;;;8.68;4.50;;;;;;;6.19;63.43;100813.88;4997007;28;20101;-51
2022/09/17 06:07:08;;;;;;;5.38;2.53;;;;;;;6.21;62.90;100813.09;5001550;28;20080;-50
2022/09/17 06:09:36;;;;;;;3.63;1.52;;;;;;;6.22;63.32;100816.56;5002935;28;20054;-52
2022/09/17 06:12:04;;;;;;;6.20;1.60;;;;;;;6.22;62.59;100817.44;5004331;28;20057;-52
2022/09/17 06:14:30;;;;;;;3.55;1.33;;;;;;;6.23;63.48;100818.28;5018856;28;20048;-50
2022/09/17 06:16:57;;;;;;;7.35;3.67;;;;;;;6.24;62.95;100820.91;5015119;28;20553;-53
2022/09/17 06:19:23;;;;;;;6.00;2.53;;;;;;;6.26;62.99;100818.38;5004983;28;20054;-53
2022/09/17 06:21:50;;;;;;;3.58;1.92;;;;;;;6.28;62.77;100821.84;5003597;28;20134;-50
2022/09/17 06:24:17;;;;;;;4.45;1.83;;;;;;;6.30;62.59;100827.94;5000552;28;20096;-47
2022/09/17 06:26:44;;;;;;;8.20;1.52;;;;;;;6.34;62.48;100828.88;5001848;28;20134;-51
2022/09/17 06:29:13;;;;;;;3.25;1.30;;;;;;;6.35;62.57;100823.75;5004889;28;20124;-50
2022/09/17 06:31:43;;;;;;;3.63;1.73;;;;;;;6.38;63.80;100828.16;5003434;28;20472;-51
2022/09/17 06:34:10;;;;;;;5.63;1.75;;;;;;;6.42;64.05;100838.53;5008081;28;20144;-49
2022/09/17 06:36:37;;;;;;;4.03;1.60;;;;;;;6.46;63.61;100846.34;4999118;28;20057;-51
2022/09/17 06:39:03;;;;;;;4.65;1.63;;;;;;;6.48;63.96;100839.56;5003772;28;20137;-53
2022/09/17 06:41:30;;;;;;;4.15;1.55;;;;;;;6.52;63.02;100839.66;5003409;28;20069;-50
2022/09/17 06:43:57;;;;;;;6.03;2.85;;;;;;;6.54;62.56;100840.59;4994937;28;20073;-54
2022/09/17 06:46:24;;;;;;;4.20;3.10;;;;;;;6.57;63.79;100850.09;5004824;28;20052;-51
2022/09/17 06:48:51;;;;;;;4.85;3.03;;;;;;;6.60;63.66;100849.28;5005119;28;20050;-51
2022/09/17 06:51:17;;;;;;;2.78;1.50;;;;;;;6.63;63.17;100845.13;5003005;28;20073;-49
2022/09/17 06:53:44;;;;;;;7.63;4.03;;;;;;;6.66;62.76;100845.16;4999472;28;20134;-56
2022/09/17 06:56:11;;;;;;;12.90;3.38;;;;;;;6.72;62.72;100838.47;5005350;28;20071;-49
2022/09/17 06:58:37;;;;;;;7.50;2.45;;;;;;;6.77;62.66;100847.16;4997147;28;20157;-49
2022/09/17 07:01:04;;;;;;;9.02;2.40;;;;;;;6.82;63.25;100843.88;4998320;28;20074;-51
2022/09/17 07:03:32;;;;;;;4.10;1.80;;;;;;;6.88;63.16;100845.72;4998668;28;20050;-49
2022/09/17 07:05:59;;;;;;;5.20;1.98;;;;;;;6.96;63.20;100837.34;5002564;28;20081;-50
2022/09/17 07:08:26;;;;;;;6.35;2.03;;;;;;;7.05;63.21;100842.69;5003119;28;20137;-53
2022/09/17 07:10:55;;;;;;;3.25;1.40;;;;;;;7.64;63.66;100844.09;5005367;28;20136;-52
2022/09/17 07:13:22;;;;;;;7.50;1.75;;;;;;;8.80;62.64;100846.34;4980798;28;20081;-53
2022/09/17 07:15:55;;;;;;;5.90;2.30;;;;;;;10.10;61.74;100851.72;4985793;28;20078;-49
2022/09/17 07:18:22;;;;;;;3.90;1.10;;;;;;;11.26;60.23;100849.41;4982465;28;20130;-54
2022/09/17 07:20:59;;;;;;;3.10;1.20;;;;;;;12.29;57.71;100856.88;4976412;28;20086;-54
2022/09/17 07:23:29;;;;;;;3.22;1.02;;;;;;;13.20;57.12;100855.22;4994676;28;20050;-56
2022/09/17 07:25:58;;;;;;;1.73;0.90;;;;;;;14.03;55.40;100855.97;4986647;28;20050;-51
2022/09/17 07:28:26;;;;;;;0.93;0.43;;;;;;;14.76;53.45;100859.91;5003445;28;20080;-56
2022/09/17 07:30:53;;;;;;;2.92;0.82;;;;;;;15.34;52.26;100851.63;4997682;28;20044;-51
2022/09/17 07:33:24;;;;;;;3.10;0.70;;;;;;;15.79;50.40;100851.16;5001306;28;20935;-48
2022/09/17 07:38:30;;;;;;;4.68;1.10;;;;;;;16.76;48.40;100862.97;5051468;27;20409;-47
2022/09/17 07:43:35;;;;;;;2.45;1.35;;;;;;;16.83;46.89;100864.59;5061708;28;20385;-50
2022/09/17 07:46:04;;;;;;;2.05;1.60;;;;;;;16.88;46.45;100861.91;5026047;27;20045;-52
2022/09/17 07:48:31;;;;;;;4.50;2.17;;;;;;;17.14;46.33;100864.13;5014262;28;20387;-46
2022/09/17 07:50:58;;;;;;;2.53;2.40;;;;;;;17.51;45.61;100861.72;5012152;28;20112;-55
2022/09/17 07:53:25;;;;;;;1.88;1.60;;;;;;;17.85;44.73;100855.84;5013707;28;20046;-56
2022/09/17 07:58:32;;;;;;;1.70;0.73;;;;;;;18.35;43.18;100860.06;5022030;27;20430;-51
2022/09/17 08:01:07;;;;;;;;;;;;;;;18.30;43.22;100861.94;5005027;28;20042;-51
2022/09/17 08:03:34;;;;;;;1.65;0.50;;;;;;;18.19;42.84;100860.41;5003260;28;20012;-54
2022/09/17 08:08:39;;;;;;;1.67;0.85;;;;;;;17.10;43.82;100857.22;5050448;28;20405;-54
2022/09/17 08:11:09;;;;;;;2.72;0.82;;;;;;;16.73;44.20;100857.78;5021328;28;20100;-53
2022/09/17 08:13:37;;;;;;;1.77;0.43;;;;;;;16.47;45.46;100852.03;5034914;28;20134;-48
2022/09/17 08:16:07;;;;;;;1.10;0.73;;;;;;;16.60;45.30;100860.56;5019515;28;20724;-55
2022/09/17 08:18:34;;;;;;;2.30;0.82;;;;;;;16.96;45.54;100858.25;5016792;28;20046;-50
2022/09/17 08:21:03;;;;;;;1.13;0.35;;;;;;;17.54;44.42;100856.44;5020640;28;20137;-54
2022/09/17 08:23:30;;;;;;;1.77;0.98;;;;;;;18.09;43.81;100848.38;5034719;28;20121;-47
2022/09/17 08:25:59;;;;;;;1.67;0.70;;;;;;;18.71;43.76;100839.13;5016535;28;20125;-48
2022/09/17 08:28:30;;;;;;;2.65;0.50;;;;;;;19.18;42.65;100835.38;5008479;28;20591;-53
2022/09/17 08:31:02;;;;;;;2.58;0.30;;;;;;;19.64;41.12;100848.16;5010957;28;20046;-55
2022/09/17 08:33:34;;;;;;;2.67;1.05;;;;;;;19.96;40.65;100854.25;5019337;28;20053;-54
2022/09/17 08:36:02;;;;;;;1.25;0.60;;;;;;;20.31;40.05;100858.53;5016740;28;20101;-51
2022/09/17 08:38:32;;;;;;;5.93;0.57;;;;;;;20.64;39.70;100861.03;5014843;28;20510;-51
2022/09/17 08:46:27;;;;;;;2.90;0.80;;;;;;;20.70;39.84;100866.09;5025213;28;20374;-56
2022/09/17 08:49:11;;;;;;;5.00;0.50;;;;;;;20.72;38.61;100866.03;5016446;28;20520;-50
2022/09/17 08:52:08;;;;;;;2.95;0.60;;;;;;;20.54;38.43;100869.22;5014187;28;20084;-55
2022/09/17 08:57:33;;;;;;;1.63;1.27;;;;;;;21.18;38.69;100861.06;5062133;27;20401;-52
2022/09/17 09:00:08;;;;;;;2.08;1.50;;;;;;;21.56;37.53;100860.63;5048938;28;20083;-51
2022/09/17 09:05:44;;;;;;;0.98;0.68;;;;;;;22.33;36.94;100858.69;5050065;27;20401;-53
2022/09/17 09:11:06;;;;;;;2.80;0.63;;;;;;;22.70;35.59;100853.75;5062686;27;20384;-50
2022/09/17 09:13:38;;;;;;;1.90;1.33;;;;;;;22.62;33.42;100851.41;5022163;28;20089;-52
2022/09/17 09:16:12;;;;;;;1.23;1.13;;;;;;;22.79;34.01;100841.91;5015454;28;20042;-50
2022/09/17 09:18:41;;;;;;;1.98;0.40;;;;;;;22.88;34.01;100859.16;5020479;28;20084;-54
2022/09/17 09:21:28;;;;;;;2.78;0.32;;;;;;;23.10;34.08;100846.78;5018918;28;20048;-50
2022/09/17 09:24:06;;;;;;;1.83;0.40;;;;;;;23.11;32.43;100845.84;5022103;28;20144;-54
2022/09/17 09:29:37;;;;;;;1.38;1.27;;;;;;;23.25;32.05;100860.25;5074618;27;20395;-49
2022/09/17 09:32:37;;;;;;;2.75;1.13;;;;;;;23.33;32.74;100859.91;5016984;28;20566;-54
2022/09/17 09:43:20;;;;;;;2.03;0.50;;;;;;;23.40;31.89;100853.47;5045613;27;20393;-55
2022/09/17 09:46:27;;;;;;;1.55;0.50;;;;;;;23.51;31.81;100855.66;5041518;28;20049;-53
2022/09/17 09:57:07;;;;;;;0.50;0.35;;;;;;;23.28;32.29;100849.56;5044465;27;20398;-47
2022/09/17 09:59:35;;;;;;;0.70;0.35;;;;;;;23.22;32.33;100840.13;5022288;28;20084;-52
2022/09/17 10:02:03;;;;;;;1.35;0.60;;;;;;;23.25;32.38;100839.13;5023248;28;20072;-51
2022/09/17 10:04:31;;;;;;;1.25;0.38;;;;;;;23.17;31.88;100828.03;5024863;28;20045;-49
2022/09/17 10:07:09;;;;;;;0.80;0.20;;;;;;;23.25;32.60;100833.84;5025706;28;20078;-55
2022/09/17 10:09:38;;;;;;;1.63;0.30;;;;;;;23.33;32.81;100831.72;5027645;28;20077;-48
2022/09/17 10:12:16;;;;;;;1.85;0.30;;;;;;;23.51;32.92;100829.22;5024355;28;20053;-49
2022/09/17 10:14:45;;;;;;;1.30;0.30;;;;;;;23.62;33.40;100831.38;5025984;28;20041;-50
2022/09/17 10:17:28;;;;;;;1.15;0.88;;;;;;;23.64;32.19;100828.66;5025196;28;20378;-52
2022/09/17 10:22:41;;;;;;;2.05;1.05;;;;;;;23.26;32.67;100827.63;5061980;28;20404;-52
2022/09/17 10:25:29;;;;;;;1.23;0.45;;;;;;;23.20;32.27;100825.25;5027574;27;20053;-51
2022/09/17 10:27:58;;;;;;;4.47;0.80;;;;;;;23.23;33.88;100835.66;5023368;28;20052;-49
2022/09/17 10:30:26;;;;;;;2.78;0.50;;;;;;;23.26;33.40;100830.25;5022850;28;20442;-53
2022/09/17 10:36:08;;;;;;;1.85;1.27;;;;;;;23.12;32.94;100825.56;5039113;28;20398;-53
2022/09/17 10:38:38;;;;;;;1.80;0.55;;;;;;;22.99;33.60;100822.59;5020390;28;20450;-54
2022/09/17 10:41:17;;;;;;;2.63;2.42;;;;;;;22.88;32.97;100820.44;5008742;28;20086;-51
2022/09/17 10:43:44;;;;;;;2.60;2.17;;;;;;;22.57;33.56;100817.28;5016957;28;20081;-50
2022/09/17 10:46:15;;;;;;;1.92;1.83;;;;;;;22.43;33.56;100827.50;5024108;28;20081;-51
2022/09/17 10:48:49;;;;;;;1.35;1.25;;;;;;;22.14;34.10;100818.97;5019820;28;20086;-51
2022/09/17 10:51:21;;;;;;;2.17;1.58;;;;;;;21.87;34.32;100813.84;5021431;28;20046;-53
2022/09/17 10:54:05;;;;;;;3.75;1.73;;;;;;;21.62;35.05;100812.09;5012416;28;20133;-53
2022/09/17 10:56:39;;;;;;;3.35;2.05;;;;;;;21.39;34.71;100814.66;5014193;28;20046;-53
2022/09/17 10:59:45;;;;;;;2.20;1.73;;;;;;;21.12;34.53;100805.94;5015802;28;20132;-51
2022/09/17 11:02:47;;;;;;;2.38;2.10;;;;;;;20.85;35.08;100805.97;5021201;28;20038;-50
2022/09/17 11:10:43;;;;;;;2.60;1.88;;;;;;;20.59;36.07;100797.16;5069788;27;20396;-56
2022/09/17 11:13:33;;;;;;;1.55;0.60;;;;;;;20.38;36.05;100807.47;5066257;28;20132;-53
2022/09/17 11:30:09;;;;;;;1.08;0.50;;;;;;;19.62;37.10;100792.19;5046511;27;20400;-51
2022/09/17 11:38:08;;;;;;;1.17;0.32;;;;;;;19.49;37.12;100782.00;5044383;28;20392;-52
2022/09/17 11:43:23;;;;;;;2.05;0.52;;;;;;;19.37;37.37;100777.97;5026747;27;20912;-50
2022/09/17 11:45:58;;;;;;;1.17;0.68;;;;;;;19.38;37.88;100768.31;5003707;28;20073;-52
2022/09/17 11:48:34;;;;;;;1.83;0.65;;;;;;;19.30;37.26;100770.28;5006225;28;20129;-52
2022/09/17 11:51:11;;;;;;;1.98;1.02;;;;;;;19.19;37.72;100763.59;5003899;28;20076;-47
2022/09/17 11:53:48;;;;;;;4.13;0.77;;;;;;;19.04;37.96;100769.22;5004428;28;20129;-51
2022/09/17 11:59:15;;;;;;;1.98;0.43;;;;;;;18.70;38.19;100771.81;5061319;28;20388;-55
2022/09/17 12:10:31;;;;;;;6.35;1.52;;;;;;;18.63;38.85;100775.47;5028463;27;20394;-54
2022/09/17 12:15:41;;;;;;;2.83;0.75;;;;;;;18.56;39.27;100779.16;5040055;27;20398;-51
2022/09/17 12:20:55;;;;;;;1.80;1.45;;;;;;;18.75;39.05;100780.41;5068212;27;20401;-50
2022/09/17 12:23:44;;;;;;;2.47;0.88;;;;;;;18.65;38.14;100778.94;5040242;28;20476;-51
2022/09/17 12:40:48;;;;;;;1.60;1.48;;;;;;;18.68;38.75;100768.34;5023982;27;20396;-46
2022/09/17 12:54:31;;;;;;;2.35;1.42;;;;;;;18.78;36.79;100750.59;5073758;27;20397;-50
2022/09/17 12:59:38;;;;;;;2.80;0.30;;;;;;;18.82;36.97;100749.66;5053353;27;20390;-48
2022/09/17 13:02:32;;;;;;;1.75;0.68;;;;;;;18.77;36.14;100748.06;5026524;28;20076;-49
2022/09/17 13:08:12;;;;;;;2.55;0.40;;;;;;;18.81;36.16;100742.66;5065729;28;20732;-48
2022/09/17 13:13:46;;;;;;;0.88;0.40;;;;;;;18.85;35.92;100743.47;5064519;28;20386;-49
2022/09/17 13:21:36;;;;;;;1.05;0.95;;;;;;;18.80;35.96;100740.06;5065354;27;20886;-50
2022/09/17 13:24:18;;;;;;;1.75;1.38;;;;;;;18.75;36.26;100743.69;5044014;28;20081;-49
2022/09/17 13:26:46;;;;;;;1.27;0.60;;;;;;;18.80;36.36;100750.56;5041948;28;20399;-52
2022/09/17 13:29:52;;;;;;;2.08;1.38;;;;;;;18.78;36.30;100747.13;5043307;28;20495;-50
2022/09/17 13:40:36;;;;;;;0.88;0.47;;;;;;;18.77;35.95;100750.69;5046648;28;20868;-52
2022/09/17 13:48:42;;;;;;;1.88;0.88;;;;;;;18.72;36.84;100743.78;5075034;27;20396;-47
2022/09/17 13:54:07;;;;;;;2.72;1.52;;;;;;;19.07;35.53;100748.16;5035079;27;20422;-49
2022/09/17 13:56:39;;;;;;;3.47;0.98;;;;;;;18.87;36.18;100741.63;5024848;28;20125;-49
2022/09/17 13:59:10;;;;;;;1.50;1.40;;;;;;;18.81;36.01;100741.81;5026143;28;20050;-49
2022/09/17 14:02:16;;;;;;;3.75;1.58;;;;;;;18.71;35.96;100742.03;5023685;28;20107;-50
2022/09/17 14:10:00;;;;;;;2.40;0.45;;;;;;;18.73;36.72;100735.00;5066175;27;20399;-50
2022/09/17 14:18:36;;;;;;;2.95;1.80;;;;;;;18.62;36.59;100739.66;5042276;27;20405;-55
2022/09/17 14:21:15;;;;;;;2.88;1.63;;;;;;;18.68;36.67;100741.28;5022487;28;20041;-45
2022/09/17 14:23:45;;;;;;;2.13;1.83;;;;;;;18.66;37.39;100732.56;5019370;28;20204;-49
2022/09/17 14:26:27;;;;;;;2.25;1.52;;;;;;;18.60;37.04;100738.81;5024073;28;20129;-49
2022/09/17 14:29:03;;;;;;;3.45;1.80;;;;;;;18.61;36.89;100751.06;5022479;28;20168;-50
2022/09/17 14:31:34;;;;;;;1.80;1.00;;;;;;;18.53;37.44;100747.75;5024359;28;20100;-52
2022/09/17 14:34:04;;;;;;;1.13;1.02;;;;;;;18.45;37.56;100746.19;5022826;28;20060;-51
2022/09/17 14:36:36;;;;;;;2.20;2.00;;;;;;;18.43;37.63;100747.97;5022740;28;20050;-48
2022/09/17 14:39:09;;;;;;;4.07;1.55;;;;;;;18.41;37.64;100744.53;5023711;28;20132;-53
2022/09/17 14:41:41;;;;;;;2.65;1.70;;;;;;;18.40;37.10;100739.34;5021811;28;20081;-53
2022/09/17 14:46:55;;;;;;;4.03;1.08;;;;;;;18.67;36.82;100724.66;5079841;27;20390;-54
2022/09/17 14:49:38;;;;;;;1.33;0.80;;;;;;;18.38;37.31;100734.13;5043615;28;20033;-52
2022/09/17 14:52:23;;;;;;;1.80;0.73;;;;;;;18.32;37.51;100729.03;5042751;28;20073;-55
2022/09/17 14:55:28;;;;;;;0.93;0.65;;;;;;;18.24;37.63;100727.44;5045512;28;20084;-53
2022/09/17 14:57:57;;;;;;;4.65;0.70;;;;;;;18.29;37.55;100729.09;5043771;28;20127;-52
2022/09/17 15:00:30;;;;;;;4.63;1.33;;;;;;;18.26;37.68;100723.91;5041753;28;20432;-49
2022/09/17 15:02:58;;;;;;;4.18;0.93;;;;;;;18.23;37.35;100720.50;5044329;28;20132;-51
2022/09/17 15:10:47;;;;;;;1.27;0.50;;;;;;;18.11;37.42;100726.03;5080092;27;20403;-50
2022/09/17 15:13:18;;;;;;;2.15;0.60;;;;;;;18.09;37.68;100722.56;5046972;28;20073;-54
2022/09/17 15:15:57;;;;;;;3.83;0.60;;;;;;;18.06;37.47;100714.72;5043287;28;20051;-50
2022/09/17 15:18:32;;;;;;;2.28;0.77;;;;;;;18.06;38.02;100722.59;5025427;28;20052;-55
2022/09/17 15:21:02;;;;;;;1.77;0.68;;;;;;;18.05;38.05;100720.88;5042451;28;20045;-55
2022/09/17 15:23:32;;;;;;;1.17;0.50;;;;;;;18.02;37.65;100720.94;5044721;28;20124;-49
2022/09/17 15:26:00;;;;;;;1.70;0.50;;;;;;;17.96;38.14;100717.59;5041969;28;20803;-50